Time;durP1;ratioP1;P1;durP2;ratioP2;P2;SDS_P1;SDS_P2;PMS_P1;PMS_P2;Temp;Humidity;BMP_temperature;BMP_pressure;BME280_temperature;BME280_humidity;BME280_pressure;Samples;Min_cycle;Max_cycle;Signal;HPM_P1;HPM_P2
2024/01/15 00:01:59;;;;;;;14.63;10.20;;;;;;;-145.63;56.68;38973.41;5011897;28;20030;-65
2024/01/15 00:04:25;;;;;;;16.80;10.68;;;;;;;-145.63;57.36;38947.97;5016751;28;20155;-65
2024/01/15 00:06:51;;;;;;;17.13;11.73;;;;;;;-145.63;57.36;38173.66;5024908;28;20029;-65
2024/01/15 00:09:16;;;;;;;17.45;11.50;;;;;;;-145.63;57.32;38934.28;5026495;28;20026;-65
2024/01/15 00:11:42;;;;;;;16.55;11.35;;;;;;;-145.63;57.55;38938.19;5026201;28;20094;-64
2024/01/15 00:14:09;;;;;;;19.15;11.57;;;;;;;-145.63;57.49;38951.88;5025266;28;20053;-64
2024/01/15 00:16:34;;;;;;;16.60;12.30;;;;;;;-145.63;57.45;38957.75;5015641;28;20227;-63
2024/01/15 00:19:00;;;;;;;17.15;11.43;;;;;;;-145.63;57.22;38955.81;5011699;28;20028;-64
2024/01/15 00:21:27;;;;;;;18.88;12.32;;;;;;;-145.63;57.62;38953.84;5024692;28;20048;-63
2024/01/15 00:23:52;;;;;;;16.67;11.45;;;;;;;-145.63;57.53;38963.63;5006869;28;20149;-64
2024/01/15 00:26:18;;;;;;;16.05;11.77;;;;;;;-145.63;57.26;38947.97;5023262;28;20310;-64
2024/01/15 00:28:44;;;;;;;17.20;11.32;;;;;;;-145.63;56.82;38965.56;5013824;28;20081;-64
2024/01/15 00:31:10;;;;;;;16.45;11.75;;;;;;;-145.63;57.11;38973.41;5013591;28;20299;-65
2024/01/15 00:33:35;;;;;;;19.63;11.82;;;;;;;-145.63;57.14;38746.56;5024778;28;20131;-65
2024/01/15 00:36:01;;;;;;;16.60;11.80;;;;;;;-145.63;56.97;38975.34;5025982;28;20462;-64
2024/01/15 00:38:27;;;;;;;17.23;10.93;;;;;;;-145.63;57.26;38924.50;5008203;28;20292;-64
2024/01/15 00:40:52;;;;;;;16.00;11.45;;;;;;;-145.63;57.28;38936.25;5019326;28;20034;-65
2024/01/15 00:43:19;;;;;;;16.05;11.38;;;;;;;-145.63;57.49;38942.13;5017343;28;20030;-63
2024/01/15 00:45:45;;;;;;;16.50;11.73;;;;;;;-145.63;57.32;38926.47;5010056;28;20132;-65
2024/01/15 00:48:10;;;;;;;18.23;11.60;;;;;;;-145.63;57.07;38965.56;5024706;28;20021;-65
2024/01/15 00:50:36;;;;;;;17.90;12.02;;;;;;;-145.63;57.75;39004.69;5067092;28;20030;-67
2024/01/15 00:53:02;;;;;;;15.68;11.00;;;;;;;-145.63;57.16;38949.94;5029752;28;20030;-65
2024/01/15 00:55:29;;;;;;;19.25;11.88;;;;;;;-145.63;57.03;38951.88;5016039;28;20029;-64
2024/01/15 00:57:55;;;;;;;20.63;12.07;;;;;;;-145.63;57.43;38957.75;5011230;28;20030;-64
2024/01/15 01:00:21;;;;;;;16.67;11.85;;;;;;;-145.63;57.18;38973.41;5025058;28;20026;-64
2024/01/15 01:02:46;;;;;;;17.58;11.57;;;;;;;-145.63;56.93;38951.88;5006028;28;20030;-65
2024/01/15 01:05:12;;;;;;;16.95;11.20;;;;;;;-145.63;57.54;38949.94;5021517;28;20026;-66
2024/01/15 01:07:38;;;;;;;17.60;12.30;;;;;;;-145.63;57.47;38938.19;5024556;28;20091;-65
2024/01/15 01:10:04;;;;;;;19.92;11.73;;;;;;;-145.63;57.50;38969.50;5023603;28;20322;-64
2024/01/15 01:12:30;;;;;;;15.40;11.63;;;;;;;-145.63;57.97;38967.53;5025114;28;20034;-65
2024/01/15 01:14:56;;;;;;;20.35;12.52;;;;;;;-145.63;57.20;38957.75;5025407;28;20037;-65
2024/01/15 01:17:22;;;;;;;18.95;12.48;;;;;;;-145.63;57.56;38969.50;5008581;28;20037;-65
2024/01/15 01:19:49;;;;;;;18.77;12.30;;;;;;;-145.63;57.73;38961.66;5017596;28;20029;-64
2024/01/15 01:22:15;;;;;;;17.17;11.85;;;;;;;-145.63;58.55;39047.72;5017568;28;20058;-64
2024/01/15 01:24:41;;;;;;;20.10;12.93;;;;;;;-145.63;58.05;38973.41;5008668;28;20212;-64
2024/01/15 01:27:07;;;;;;;19.73;12.63;;;;;;;-145.63;58.54;38955.81;5024031;28;20034;-63
2024/01/15 01:29:32;;;;;;;20.23;12.93;;;;;;;-145.63;58.52;38928.44;5007139;28;20065;-64
2024/01/15 01:31:58;;;;;;;18.38;12.25;;;;;;;-145.63;58.04;38991.00;5018543;28;20041;-65
2024/01/15 01:34:24;;;;;;;19.20;13.05;;;;;;;-145.63;57.86;38957.75;5016242;28;20331;-64
2024/01/15 01:36:50;;;;;;;18.75;12.85;;;;;;;-145.63;58.50;38934.28;5009337;28;20093;-64
2024/01/15 01:39:15;;;;;;;18.83;12.68;;;;;;;-145.63;57.87;38949.94;5024833;28;20026;-64
2024/01/15 01:41:41;;;;;;;16.45;12.23;;;;;;;-145.63;57.91;38965.56;5005426;28;20038;-65
2024/01/15 01:44:07;;;;;;;17.10;11.75;;;;;;;-145.63;58.51;38961.66;5019650;28;20298;-65
2024/01/15 01:46:34;;;;;;;20.13;13.15;;;;;;;-145.63;58.57;38963.63;5034618;28;20032;-65
2024/01/15 01:49:05;;;;;;;18.30;12.90;;;;;;;-145.63;58.72;38971.44;5040148;28;20096;-65
2024/01/15 01:51:31;;;;;;;17.70;12.38;;;;;;;-145.63;58.45;38985.13;5042996;28;20100;-64
2024/01/15 01:53:57;;;;;;;19.73;12.60;;;;;;;-145.63;58.50;38957.75;5024503;28;20042;-64
2024/01/15 01:56:23;;;;;;;18.60;12.82;;;;;;;-145.63;58.34;38963.63;5008039;28;20033;-66
2024/01/15 01:58:49;;;;;;;19.13;12.38;;;;;;;-145.63;58.08;38991.00;5016701;28;20033;-65
2024/01/15 02:01:16;;;;;;;16.13;12.18;;;;;;;-145.63;57.99;38975.34;5017049;28;20203;-65
2024/01/15 02:03:43;;;;;;;19.80;13.50;;;;;;;-145.63;57.75;38351.56;5007375;28;20042;-65
2024/01/15 02:06:09;;;;;;;18.48;13.27;;;;;;;-145.63;58.52;38985.13;5024415;28;20033;-66
2024/01/15 02:08:35;;;;;;;19.30;13.30;;;;;;;-145.63;58.42;38961.66;5023842;28;20025;-65
2024/01/15 02:11:01;;;;;;;18.08;13.63;;;;;;;-145.63;58.55;38961.66;5024064;28;20030;-65
2024/01/15 02:13:27;;;;;;;20.55;12.90;;;;;;;-145.63;58.86;38957.75;5024189;28;20188;-64
2024/01/15 02:15:53;;;;;;;19.55;13.02;;;;;;;-145.63;58.72;38953.84;5019734;28;20039;-65
2024/01/15 02:18:20;;;;;;;19.15;14.27;;;;;;;-145.63;59.12;38748.50;5004572;28;20061;-65
2024/01/15 02:20:46;;;;;;;18.55;12.88;;;;;;;-145.63;58.96;38969.50;5023607;28;20190;-66
2024/01/15 02:23:15;;;;;;;20.58;14.55;;;;;;;-145.63;59.13;38977.31;5008981;28;20109;-65
2024/01/15 02:25:46;;;;;;;18.30;13.85;;;;;;;-145.63;59.45;38539.28;5014713;28;20097;-64
2024/01/15 02:28:13;;;;;;;18.85;13.95;;;;;;;-145.63;59.55;39000.78;5017192;28;20419;-65
2024/01/15 02:30:41;;;;;;;19.25;14.05;;;;;;;-145.63;58.93;38969.50;5005749;28;20046;-64
2024/01/15 02:33:08;;;;;;;23.02;15.10;;;;;;;-145.63;59.07;38983.19;5023463;28;20305;-65
2024/01/15 02:35:36;;;;;;;20.23;13.43;;;;;;;-145.63;59.24;38973.41;5006168;28;20049;-65
2024/01/15 02:38:05;;;;;;;21.88;14.18;;;;;;;-145.63;58.95;38985.13;5017361;28;20030;-65
2024/01/15 02:40:32;;;;;;;22.63;13.70;;;;;;;-145.63;59.49;38918.66;5014578;28;20037;-66
2024/01/15 02:42:58;;;;;;;22.33;14.32;;;;;;;-145.63;59.13;38807.19;5008432;28;20026;-65
2024/01/15 02:45:24;;;;;;;21.17;14.13;;;;;;;-145.63;58.90;38961.66;5023681;28;20060;-65
2024/01/15 02:47:49;;;;;;;21.02;14.25;;;;;;;-145.63;58.86;38975.34;5003717;28;20030;-65
2024/01/15 02:50:15;;;;;;;21.05;14.15;;;;;;;-145.63;58.70;38973.41;5030268;28;20334;-65
2024/01/15 02:52:44;;;;;;;23.17;14.32;;;;;;;-145.63;59.20;39006.66;5032615;28;20026;-65
2024/01/15 02:55:10;;;;;;;20.63;14.00;;;;;;;-145.63;59.23;39000.78;5017113;28;20027;-65
2024/01/15 02:57:36;;;;;;;22.05;14.43;;;;;;;-145.63;58.78;39028.16;5005241;28;20034;-65
2024/01/15 03:00:02;;;;;;;21.58;14.25;;;;;;;-145.63;58.86;39004.69;5023355;28;20048;-65
2024/01/15 03:02:31;;;;;;;22.65;14.93;;;;;;;-145.63;58.55;38991.00;5006512;28;20057;-65
2024/01/15 03:04:57;;;;;;;19.85;14.30;;;;;;;-145.63;59.16;38965.56;5015853;28;20112;-64
2024/01/15 03:07:23;;;;;;;22.23;13.80;;;;;;;-145.63;58.86;38998.81;5023043;28;20029;-66
2024/01/15 03:09:48;;;;;;;23.10;14.20;;;;;;;-145.63;59.02;39000.78;5023122;28;20160;-64
2024/01/15 03:12:14;;;;;;;19.83;14.52;;;;;;;-145.63;58.39;38992.97;5023128;28;20030;-65
2024/01/15 03:14:40;;;;;;;22.10;13.73;;;;;;;-145.63;57.96;38991.00;5023010;28;20026;-66
2024/01/15 03:17:05;;;;;;;20.02;14.73;;;;;;;-145.63;58.16;38996.88;5009310;28;20048;-65
2024/01/15 03:19:35;;;;;;;23.98;14.82;;;;;;;-145.63;58.36;38998.81;5012093;28;20045;-65
2024/01/15 03:22:02;;;;;;;21.60;14.75;;;;;;;-145.63;58.83;39035.97;5018292;28;20041;-64
2024/01/15 03:24:28;;;;;;;20.42;14.73;;;;;;;-145.63;58.35;39008.59;5003543;28;20026;-66
2024/01/15 03:26:54;;;;;;;21.65;13.95;;;;;;;-145.63;58.25;38996.88;5022772;28;20072;-65
2024/01/15 03:29:19;;;;;;;21.33;14.70;;;;;;;-145.63;58.55;39028.16;5006314;28;20042;-65
2024/01/15 03:31:45;;;;;;;22.17;14.45;;;;;;;-145.63;57.88;39024.25;5013629;28;20195;-66
2024/01/15 03:34:11;;;;;;;20.65;14.73;;;;;;;-145.63;58.05;39020.34;5022246;28;20029;-65
2024/01/15 03:36:36;;;;;;;24.17;15.90;;;;;;;-145.63;58.46;39035.97;5021277;28;20056;-65
2024/01/15 03:39:02;;;;;;;21.10;14.63;;;;;;;-145.63;58.66;39039.88;5003202;28;20069;-64
2024/01/15 03:41:28;;;;;;;21.15;14.63;;;;;;;-145.63;57.91;39028.16;5019334;28;20315;-65
2024/01/15 03:43:54;;;;;;;21.65;15.27;;;;;;;-145.63;58.93;39014.47;5022324;28;20026;-65
2024/01/15 03:46:19;;;;;;;22.00;14.98;;;;;;;-145.63;59.03;39047.72;5015659;28;20056;-65
2024/01/15 03:48:45;;;;;;;21.08;14.90;;;;;;;-145.63;58.51;39008.59;5005137;28;20184;-65
2024/01/15 03:51:10;;;;;;;22.35;15.32;;;;;;;-145.63;59.30;38996.88;5041626;28;20040;-64
2024/01/15 03:53:38;;;;;;;23.95;15.45;;;;;;;-145.63;59.20;39012.50;5023426;28;20033;-65
2024/01/15 03:56:04;;;;;;;23.20;15.25;;;;;;;-145.63;59.67;38989.03;5009638;28;20042;-66
2024/01/15 03:58:29;;;;;;;26.55;17.23;;;;;;;-145.63;59.15;39006.66;5010917;28;20257;-65
2024/01/15 04:00:55;;;;;;;23.65;16.45;;;;;;;-145.63;59.36;39032.06;5022118;28;20041;-64
2024/01/15 04:03:21;;;;;;;23.92;16.05;;;;;;;-145.63;59.80;39014.47;5022478;28;20052;-64
2024/01/15 04:05:47;;;;;;;22.23;15.18;;;;;;;-145.63;59.50;39026.19;5003813;28;20227;-63
2024/01/15 04:08:12;;;;;;;23.05;16.08;;;;;;;-145.63;59.67;39020.34;5017347;28;20105;-63
2024/01/15 04:10:38;;;;;;;23.30;16.10;;;;;;;-145.63;58.99;39039.88;5022037;28;20387;-62
2024/01/15 04:13:03;;;;;;;21.48;15.18;;;;;;;-145.63;59.05;39022.28;5022336;28;20026;-62
2024/01/15 04:15:29;;;;;;;24.38;15.75;;;;;;;-145.63;59.91;39026.19;5022081;28;20026;-63
2024/01/15 04:17:55;;;;;;;22.33;15.57;;;;;;;-145.63;58.95;39022.28;5002246;28;20033;-63
2024/01/15 04:20:20;;;;;;;21.70;15.50;;;;;;;-145.63;59.65;39053.59;5017557;28;20064;-64
2024/01/15 04:22:46;;;;;;;22.17;15.75;;;;;;;-145.63;59.65;39020.34;5011879;28;20022;-63
2024/01/15 04:25:12;;;;;;;21.70;15.45;;;;;;;-145.63;58.52;39047.72;5007868;28;20200;-63
2024/01/15 04:27:38;;;;;;;22.75;16.05;;;;;;;-145.63;59.21;39084.88;5021098;28;20029;-63
2024/01/15 04:30:04;;;;;;;22.70;15.38;;;;;;;-145.63;60.48;39034.03;5033997;28;20046;-63
2024/01/15 04:32:30;;;;;;;26.65;17.27;;;;;;;-145.63;60.32;39053.59;5018530;28;20046;-64
2024/01/15 04:34:56;;;;;;;24.40;16.35;;;;;;;-145.63;59.65;39028.16;5021902;28;20120;-64
2024/01/15 04:37:21;;;;;;;24.63;16.38;;;;;;;-145.63;60.15;39035.97;5014929;28;20056;-65
2024/01/15 04:39:47;;;;;;;25.50;17.40;;;;;;;-145.63;59.71;39016.44;5004225;28;20034;-65
2024/01/15 04:42:13;;;;;;;23.48;16.35;;;;;;;-145.63;60.32;39053.59;5022140;28;20064;-66
2024/01/15 04:44:39;;;;;;;24.05;16.63;;;;;;;-145.63;59.21;39043.81;5005426;28;20034;-65
2024/01/15 04:47:05;;;;;;;23.83;16.55;;;;;;;-145.63;59.23;39051.63;5018504;28;20072;-63
2024/01/15 04:49:30;;;;;;;23.95;15.63;;;;;;;-145.63;60.01;39010.56;5019222;28;20022;-65
2024/01/15 04:51:56;;;;;;;23.20;15.88;;;;;;;-145.63;59.97;38957.75;5016151;28;20030;-62
2024/01/15 04:54:22;;;;;;;23.80;17.05;;;;;;;-145.63;59.61;39059.44;5011493;28;20058;-62
2024/01/15 04:56:47;;;;;;;24.55;17.45;;;;;;;-145.63;60.09;39047.72;5011493;28;20313;-64
2024/01/15 04:59:14;;;;;;;24.08;17.05;;;;;;;-145.63;60.53;39035.97;5024988;28;20088;-62
2024/01/15 05:01:40;;;;;;;25.83;17.60;;;;;;;-145.63;60.04;39034.03;5009984;28;20076;-64
2024/01/15 05:04:05;;;;;;;27.27;18.33;;;;;;;-145.63;59.64;39043.81;5013968;28;20049;-63
2024/01/15 05:06:31;;;;;;;26.58;17.67;;;;;;;-145.63;60.03;39024.25;5043986;28;20029;-63
2024/01/15 05:08:57;;;;;;;25.98;17.67;;;;;;;-145.63;59.31;39055.53;5025165;28;20038;-61
2024/01/15 05:11:23;;;;;;;23.35;17.45;;;;;;;-145.63;59.00;39028.16;5019086;28;20036;-64
2024/01/15 05:13:49;;;;;;;27.60;16.80;;;;;;;-145.63;59.41;39039.88;5028562;28;20071;-60
2024/01/15 05:16:15;;;;;;;27.15;17.98;;;;;;;-145.63;59.93;39041.84;5051633;28;20050;-62
2024/01/15 05:18:40;;;;;;;26.95;17.20;;;;;;;-145.63;60.34;39051.63;5017181;28;20287;-62
2024/01/15 05:21:06;;;;;;;25.60;17.75;;;;;;;-145.63;60.12;39059.44;5016068;28;20034;-61
2024/01/15 05:23:32;;;;;;;25.40;17.88;;;;;;;-145.63;60.00;39008.59;5009058;28;20096;-62
2024/01/15 05:25:57;;;;;;;24.30;16.75;;;;;;;-145.63;59.47;39008.59;5016282;28;20033;-63
2024/01/15 05:28:23;;;;;;;27.88;17.45;;;;;;;-145.63;60.55;39030.13;5018262;28;20053;-62
2024/01/15 05:30:50;;;;;;;29.73;18.55;;;;;;;-145.63;60.42;39020.34;5008406;28;20382;-61
2024/01/15 05:33:16;;;;;;;25.75;18.20;;;;;;;-145.63;60.21;39051.63;5023966;28;20093;-61
2024/01/15 05:35:42;;;;;;;25.98;18.40;;;;;;;-145.63;60.09;39086.81;5007280;28;20026;-62
2024/01/15 05:38:08;;;;;;;25.52;18.45;;;;;;;-145.63;59.95;39057.50;5017791;28;20030;-62
2024/01/15 05:40:34;;;;;;;28.17;17.90;;;;;;;-145.63;60.55;39039.88;5016952;28;20084;-62
2024/01/15 05:42:59;;;;;;;27.13;18.60;;;;;;;-145.63;61.29;39032.06;5008251;28;20029;-62
2024/01/15 05:45:30;;;;;;;29.83;18.17;;;;;;;-145.63;60.78;39092.69;5024574;28;20038;-62
2024/01/15 05:47:56;;;;;;;28.55;18.80;;;;;;;-145.63;60.11;39059.44;5005619;28;20034;-62
2024/01/15 05:50:22;;;;;;;30.42;18.13;;;;;;;-145.63;60.75;39051.63;5031358;28;20190;-61
2024/01/15 05:52:48;;;;;;;30.02;18.88;;;;;;;-145.63;60.77;39063.34;5034416;28;20042;-62
2024/01/15 05:55:14;;;;;;;27.00;17.67;;;;;;;-145.63;60.51;39043.81;5017838;28;20033;-62
2024/01/15 05:57:40;;;;;;;25.83;17.30;;;;;;;-145.63;61.44;39055.53;5023350;28;20093;-62
2024/01/15 06:00:06;;;;;;;27.50;20.00;;;;;;;-145.63;61.20;39079.00;5004650;28;20037;-60
2024/01/15 06:02:33;;;;;;;25.05;18.50;;;;;;;-145.63;60.63;39067.28;5019920;28;20155;-63
2024/01/15 06:04:58;;;;;;;27.23;19.33;;;;;;;-145.63;60.75;39073.13;5033540;28;20310;-61
2024/01/15 06:07:24;;;;;;;28.02;19.15;;;;;;;-145.63;60.36;39108.34;5032586;28;20091;-62
2024/01/15 06:09:50;;;;;;;28.17;19.48;;;;;;;-145.63;60.67;39059.44;5034272;28;20097;-62
2024/01/15 06:12:15;;;;;;;27.17;18.73;;;;;;;-145.63;61.38;39079.00;4990075;28;20045;-62
2024/01/15 06:14:42;;;;;;;25.33;17.67;;;;;;;-145.63;60.72;39061.41;5024086;28;20029;-62
2024/01/15 06:17:08;;;;;;;26.38;19.23;;;;;;;-145.63;60.93;39045.75;5011764;28;20022;-63
2024/01/15 06:19:33;;;;;;;27.85;19.40;;;;;;;-145.63;59.89;39090.75;5009100;28;20318;-62
2024/01/15 06:21:59;;;;;;;28.55;18.55;;;;;;;-145.63;60.38;39059.44;5006877;28;20037;-62
2024/01/15 06:24:25;;;;;;;25.88;19.25;;;;;;;-145.63;59.99;39041.84;5023834;28;20071;-62
2024/01/15 06:26:51;;;;;;;25.70;17.80;;;;;;;-145.63;60.84;39069.22;5023672;28;20022;-61
2024/01/15 06:29:17;;;;;;;24.25;18.55;;;;;;;-145.63;60.32;39075.09;5023617;28;20329;-62
2024/01/15 06:31:42;;;;;;;29.45;18.15;;;;;;;-145.63;59.88;39061.41;5020146;28;20037;-62
2024/01/15 06:34:08;;;;;;;29.15;19.90;;;;;;;-145.63;61.05;39071.19;5019751;28;20101;-63
2024/01/15 06:36:34;;;;;;;27.77;18.75;;;;;;;-145.63;59.81;39065.31;5016891;28;20218;-62
2024/01/15 06:38:59;;;;;;;27.63;19.92;;;;;;;-145.63;60.64;39065.31;5023293;28;20026;-62
2024/01/15 06:41:25;;;;;;;31.25;20.33;;;;;;;-145.63;59.98;39067.28;5021338;28;20160;-63
2024/01/15 06:43:51;;;;;;;34.10;21.30;;;;;;;-145.63;59.79;39020.34;5022267;28;20026;-62
2024/01/15 06:46:21;;;;;;;30.52;20.55;;;;;;;-145.63;60.06;39088.78;5028291;28;20025;-63
2024/01/15 06:48:47;;;;;;;27.58;18.73;;;;;;;-145.63;60.21;39047.72;5042166;28;20088;-63
2024/01/15 06:51:13;;;;;;;27.63;19.55;;;;;;;-145.63;60.06;39055.53;5022617;28;20052;-62
2024/01/15 06:53:38;;;;;;;28.77;19.40;;;;;;;-145.63;59.49;39035.97;5023096;28;20210;-61
2024/01/15 06:56:04;;;;;;;28.30;19.55;;;;;;;-145.63;59.98;39086.81;5022367;28;20033;-63
2024/01/15 06:58:32;;;;;;;27.33;19.75;;;;;;;-145.63;59.49;39049.66;5022587;28;20357;-62
2024/01/15 07:00:58;;;;;;;27.70;18.55;;;;;;;-145.63;60.28;39049.66;5022118;28;20030;-61
2024/01/15 07:03:24;;;;;;;31.30;20.17;;;;;;;-145.63;60.23;39026.19;5020905;28;20376;-62
2024/01/15 07:05:50;;;;;;;26.58;18.30;;;;;;;-145.63;59.74;39035.97;5020708;28;20029;-63
2024/01/15 07:08:15;;;;;;;28.13;19.88;;;;;;;-145.63;60.73;39039.88;5022003;28;20060;-62
2024/01/15 07:10:41;;;;;;;29.08;18.77;;;;;;;-145.63;60.15;39043.81;5018991;28;20044;-62
2024/01/15 07:13:07;;;;;;;27.00;18.52;;;;;;;-145.63;60.33;39035.97;5019273;28;20030;-63
2024/01/15 07:15:32;;;;;;;27.38;19.17;;;;;;;-145.63;60.12;39057.50;5017065;28;20219;-61
2024/01/15 07:17:58;;;;;;;29.13;19.52;;;;;;;-145.63;60.22;39051.63;5018757;28;20033;-61
2024/01/15 07:20:24;;;;;;;28.40;19.98;;;;;;;-145.63;60.21;39043.81;5017297;28;20313;-62
2024/01/15 07:22:49;;;;;;;25.45;18.85;;;;;;;-145.63;59.70;39094.66;5022202;28;20021;-62
2024/01/15 07:25:16;;;;;;;30.10;20.50;;;;;;;-145.63;59.75;39028.16;5022677;28;20033;-63
2024/01/15 07:27:44;;;;;;;27.70;18.80;;;;;;;-145.63;59.63;39045.75;5022581;28;20060;-60
2024/01/15 07:30:13;;;;;;;30.77;19.90;;;;;;;-145.63;60.28;39055.53;5013719;28;20319;-63
2024/01/15 07:32:39;;;;;;;30.58;19.17;;;;;;;-145.63;60.86;39051.63;5022431;28;20060;-63
2024/01/15 07:35:05;;;;;;;30.10;19.10;;;;;;;-145.63;60.87;39063.34;5022475;28;20026;-62
2024/01/15 07:37:31;;;;;;;27.77;20.25;;;;;;;-145.63;60.63;38783.72;5009311;28;20053;-63
2024/01/15 07:39:57;;;;;;;28.98;19.27;;;;;;;-145.63;60.42;39043.81;5021966;28;20030;-64
2024/01/15 07:42:22;;;;;;;28.05;20.85;;;;;;;-145.63;60.31;39032.06;5022411;28;20068;-63
2024/01/15 07:44:48;;;;;;;33.72;21.45;;;;;;;-145.63;60.10;39030.13;5033923;28;20245;-62
2024/01/15 07:47:14;;;;;;;29.48;20.77;;;;;;;-145.63;59.73;39057.50;5015388;28;20093;-61
2024/01/15 07:49:40;;;;;;;31.05;21.23;;;;;;;-145.63;60.07;39045.75;5018573;28;20364;-61
2024/01/15 07:52:06;;;;;;;30.02;20.90;;;;;;;-145.63;59.85;39045.75;5012642;28;20034;-62
2024/01/15 07:54:32;;;;;;;28.40;20.02;;;;;;;-145.63;59.72;39071.19;5014221;28;20042;-61
2024/01/15 07:57:05;;;;;;;33.45;20.98;;;;;;;-145.63;59.59;39051.63;5020049;28;20042;-62
2024/01/15 07:59:31;;;;;;;31.95;21.48;;;;;;;-145.63;59.58;38766.13;5007992;28;20033;-61
2024/01/15 08:01:59;;;;;;;30.80;20.75;;;;;;;-145.63;59.57;39053.59;5021876;28;20053;-61
2024/01/15 08:04:25;;;;;;;30.08;19.85;;;;;;;-145.63;59.92;39088.78;5017073;28;20041;-62
2024/01/15 08:06:50;;;;;;;29.30;19.80;;;;;;;-145.63;59.93;39086.81;5016974;28;20026;-61
2024/01/15 08:09:16;;;;;;;30.83;20.23;;;;;;;-145.63;59.67;39090.75;5015650;28;20030;-63
2024/01/15 08:11:43;;;;;;;29.08;19.75;;;;;;;-145.63;59.67;39063.34;5017121;28;20075;-62
2024/01/15 08:14:09;;;;;;;30.02;20.08;;;;;;;-145.63;59.45;39067.28;5013884;28;20029;-61
2024/01/15 08:16:38;;;;;;;30.17;20.08;;;;;;;-145.63;59.79;39037.94;5023963;28;20053;-62
2024/01/15 08:19:05;;;;;;;28.65;20.25;;;;;;;-145.63;59.80;39084.88;5030661;28;20029;-62
2024/01/15 08:21:31;;;;;;;30.63;20.90;;;;;;;-145.63;59.76;38947.97;5040067;28;20025;-62
2024/01/15 08:24:02;;;;;;;30.85;20.95;;;;;;;-145.63;59.54;39073.13;5027622;28;20038;-62
2024/01/15 08:26:28;;;;;;;31.33;20.52;;;;;;;-145.63;59.48;39063.34;5031432;28;20069;-62
2024/01/15 08:28:54;;;;;;;30.20;20.58;;;;;;;-145.63;59.24;39063.34;5034345;28;20026;-62
2024/01/15 08:31:21;;;;;;;28.95;19.98;;;;;;;-145.63;59.51;39069.22;5034834;28;20275;-62
2024/01/15 08:33:46;;;;;;;27.15;19.10;;;;;;;-145.63;59.44;39075.09;5026219;28;20090;-63
2024/01/15 08:36:12;;;;;;;31.52;21.02;;;;;;;-145.63;59.42;39065.31;5021957;28;20072;-62
2024/01/15 08:38:39;;;;;;;32.90;19.50;;;;;;;-145.63;59.53;39086.81;5028045;28;20084;-61
2024/01/15 08:41:05;;;;;;;27.67;20.60;;;;;;;-145.63;59.67;39071.19;5029002;28;20036;-62
2024/01/15 08:43:33;;;;;;;33.88;19.60;;;;;;;-145.63;59.58;39059.44;5035396;28;20059;-60
2024/01/15 08:46:00;;;;;;;27.98;19.33;;;;;;;-145.63;59.96;39065.31;5027982;28;20033;-61
2024/01/15 08:48:28;;;;;;;26.65;19.75;;;;;;;-145.63;59.94;39084.88;5032641;28;20028;-62
2024/01/15 08:50:55;;;;;;;29.67;20.30;;;;;;;-145.63;59.96;39059.44;5033551;28;20044;-60
2024/01/15 08:53:21;;;;;;;25.88;17.58;;;;;;;-145.63;59.90;39059.44;5031166;28;20026;-61
2024/01/15 08:55:47;;;;;;;28.90;19.63;;;;;;;-145.63;59.63;39073.13;5038175;28;20092;-60
2024/01/15 08:58:14;;;;;;;31.52;20.02;;;;;;;-145.63;59.52;39112.25;5042163;28;20025;-61
2024/01/15 09:00:40;;;;;;;30.20;20.08;;;;;;;-145.63;59.63;39061.41;5033151;28;20045;-61
2024/01/15 09:03:06;;;;;;;28.17;19.90;;;;;;;-145.63;59.59;39094.66;5042377;28;20029;-61
2024/01/15 09:05:32;;;;;;;29.45;19.70;;;;;;;-145.63;59.60;39061.41;5031065;28;20033;-62
2024/01/15 09:07:58;;;;;;;29.15;18.77;;;;;;;-145.63;59.16;39094.66;5025173;28;20034;-61
2024/01/15 09:10:24;;;;;;;30.98;20.60;;;;;;;-145.63;58.84;39079.00;5025098;28;20037;-61
2024/01/15 09:12:49;;;;;;;30.00;20.25;;;;;;;-145.63;58.93;39129.84;5024151;28;20049;-62
2024/01/15 09:15:15;;;;;;;26.77;18.35;;;;;;;-145.63;58.84;39125.94;5025180;28;20097;-62
2024/01/15 09:17:42;;;;;;;26.33;18.38;;;;;;;-145.63;58.88;39096.59;5023237;28;20036;-62
2024/01/15 09:20:09;;;;;;;25.83;18.67;;;;;;;-145.63;59.02;39116.16;5014600;28;20029;-61
2024/01/15 09:22:37;;;;;;;29.00;18.13;;;;;;;-145.63;59.29;39069.22;5034706;28;20037;-61
2024/01/15 09:25:04;;;;;;;28.30;20.08;;;;;;;-145.63;59.28;39104.44;5035560;28;20029;-63
2024/01/15 09:27:29;;;;;;;27.65;19.58;;;;;;;-145.63;58.70;39106.38;5028739;28;20038;-62
2024/01/15 09:29:55;;;;;;;27.58;19.27;;;;;;;-145.63;58.71;39104.44;5031727;28;20306;-61
2024/01/15 09:32:21;;;;;;;26.52;18.67;;;;;;;-145.63;58.93;39118.13;5029863;28;20029;-61
2024/01/15 09:34:47;;;;;;;27.70;19.52;;;;;;;-145.63;58.52;39137.69;5033545;28;20018;-61
2024/01/15 09:37:14;;;;;;;24.80;18.13;;;;;;;-145.63;58.40;39167.00;5034059;28;20030;-61
2024/01/15 09:39:40;;;;;;;27.60;18.67;;;;;;;-145.63;58.57;39108.34;5025469;28;20041;-61
2024/01/15 09:42:07;;;;;;;26.67;18.65;;;;;;;-145.63;58.31;39155.28;5022891;28;20029;-62
2024/01/15 09:44:33;;;;;;;29.20;18.33;;;;;;;-145.63;58.82;39139.63;5023164;28;20041;-60
2024/01/15 09:46:59;;;;;;;29.23;18.92;;;;;;;-145.63;58.47;39141.59;5031080;28;20249;-61
2024/01/15 09:49:24;;;;;;;26.38;19.00;;;;;;;-145.63;58.57;39129.84;5033701;28;20092;-61
2024/01/15 09:51:50;;;;;;;26.75;18.02;;;;;;;-145.63;58.38;39123.97;5028727;28;20025;-61
2024/01/15 09:54:17;;;;;;;28.08;19.27;;;;;;;-145.63;58.25;39116.16;5010684;28;20034;-62
2024/01/15 09:56:47;;;;;;;25.75;17.55;;;;;;;-145.63;58.95;39090.75;5014876;28;20052;-61
2024/01/15 09:59:18;;;;;;;27.80;18.85;;;;;;;-145.63;59.08;39080.97;5011590;28;20038;-61
2024/01/15 10:01:45;;;;;;;27.15;18.95;;;;;;;-145.63;58.72;39090.75;5015033;28;20244;-62
2024/01/15 10:04:14;;;;;;;26.40;19.48;;;;;;;-145.63;58.67;39120.06;5016753;28;20125;-62
2024/01/15 10:06:47;;;;;;;28.65;18.73;;;;;;;-145.63;58.63;39116.16;5019994;28;20030;-61
2024/01/15 10:09:17;;;;;;;26.92;18.83;;;;;;;-145.63;58.93;39110.28;5020336;28;20030;-63
2024/01/15 10:11:44;;;;;;;28.27;19.27;;;;;;;-145.63;58.42;39143.53;5023397;28;20099;-61
2024/01/15 10:14:13;;;;;;;25.83;18.45;;;;;;;-145.63;58.76;39135.72;5018191;28;20033;-62
2024/01/15 10:16:39;;;;;;;30.38;19.23;;;;;;;-145.63;58.78;39131.81;5016473;28;20036;-61
2024/01/15 10:19:05;;;;;;;26.83;18.58;;;;;;;-145.63;58.70;39137.69;5015514;28;20030;-61
2024/01/15 10:21:35;;;;;;;26.35;18.77;;;;;;;-145.63;58.45;39137.69;5024212;28;20060;-62
2024/01/15 10:24:02;;;;;;;26.40;18.63;;;;;;;-145.63;58.89;39112.25;5040612;28;20035;-62
2024/01/15 10:26:29;;;;;;;24.17;17.83;;;;;;;-145.63;58.99;39157.22;5043254;28;20210;-62
2024/01/15 10:28:55;;;;;;;26.85;18.73;;;;;;;-145.63;58.98;39090.75;5019293;28;20295;-62
2024/01/15 10:31:21;;;;;;;25.80;18.88;;;;;;;-145.63;59.18;39141.59;5023399;28;20061;-63
2024/01/15 10:33:51;;;;;;;26.95;19.10;;;;;;;-145.63;58.86;39165.06;5014334;28;20030;-61
2024/01/15 10:36:17;;;;;;;25.50;18.27;;;;;;;-145.63;58.61;39129.84;5013480;28;20038;-63
2024/01/15 10:38:43;;;;;;;26.92;18.83;;;;;;;-145.63;58.34;38922.56;5010947;28;20045;-63
2024/01/15 10:41:09;;;;;;;25.75;19.13;;;;;;;-145.63;58.01;39118.13;5012280;28;20034;-62
2024/01/15 10:43:35;;;;;;;25.25;18.30;;;;;;;-145.63;58.49;39110.28;5009028;28;20360;-62
2024/01/15 10:46:02;;;;;;;24.40;18.27;;;;;;;-145.63;58.52;39135.72;5010700;28;20060;-62
2024/01/15 10:48:30;;;;;;;24.77;17.95;;;;;;;-145.63;58.68;39184.59;5024168;28;20049;-62
2024/01/15 10:50:58;;;;;;;26.90;19.45;;;;;;;-145.63;58.42;39198.31;5036135;28;20092;-62
2024/01/15 10:53:25;;;;;;;26.42;17.98;;;;;;;-145.63;58.48;39129.84;5028302;28;20046;-62
2024/01/15 10:55:53;;;;;;;24.70;17.85;;;;;;;-145.63;58.42;39125.94;5031449;28;20102;-62
2024/01/15 10:58:23;;;;;;;26.48;18.83;;;;;;;-145.63;58.49;39167.00;5032401;28;20306;-63